Buchanan, New York
Current Conditions -  °F | °C
As of 12:56 AM on Saturday 29 Nov 2014 (Local Time) from KHPN Reporting Station
Scattered Clouds Scattered Clouds  
Wind Chill: 24°   Ceiling: Unl
Heat Index: 24°   Visibility: 10mi
Dew Point: 13°   Wind: 3mph
Humidity: 62%   Direction: 270°W
Pressure: 30.24"   Gusts: NA
Location:  41.26°N, 73.94°W
Report Text: KHPN 290556Z 27003KT 10SM SCT110 M04/M11 A3024 RMK AO2 SLP249 T10441106 11028 21056 53002
Loading
Personal Weather Stations






























Interactive Weather Map New forecast layout! Learn more

10-Day Weather Forecast

Advertisements
Track Severe Weather on mobile